sensor_id;sensor_type;location;lat;lon;timestamp;P1;durP1;ratioP1;P2;durP2;ratioP2
12725;SDS011;6427;49.754;6.106;2023-04-01T00:00:27;2.70;;;0.60;;
12725;SDS011;6427;49.754;6.106;2023-04-01T00:02:55;5.50;;;0.90;;
12725;SDS011;6427;49.754;6.106;2023-04-01T00:05:22;3.80;;;0.60;;
12725;SDS011;6427;49.754;6.106;2023-04-01T00:07:50;4.87;;;0.80;;
12725;SDS011;6427;49.754;6.106;2023-04-01T00:10:18;4.70;;;1.17;;
12725;SDS011;6427;49.754;6.106;2023-04-01T00:12:45;2.00;;;0.63;;
12725;SDS011;6427;49.754;6.106;2023-04-01T00:15:13;2.33;;;0.60;;
12725;SDS011;6427;49.754;6.106;2023-04-01T00:17:40;3.73;;;0.60;;
12725;SDS011;6427;49.754;6.106;2023-04-01T00:20:11;5.67;;;0.97;;
12725;SDS011;6427;49.754;6.106;2023-04-01T00:22:38;5.23;;;0.90;;
12725;SDS011;6427;49.754;6.106;2023-04-01T00:25:06;4.63;;;0.87;;
12725;SDS011;6427;49.754;6.106;2023-04-01T00:27:33;3.87;;;0.80;;
12725;SDS011;6427;49.754;6.106;2023-04-01T00:30:01;4.27;;;0.60;;
12725;SDS011;6427;49.754;6.106;2023-04-01T00:32:29;6.03;;;1.07;;
12725;SDS011;6427;49.754;6.106;2023-04-01T00:34:56;5.83;;;0.90;;
12725;SDS011;6427;49.754;6.106;2023-04-01T00:37:24;4.50;;;1.30;;
12725;SDS011;6427;49.754;6.106;2023-04-01T00:39:52;4.83;;;0.93;;
12725;SDS011;6427;49.754;6.106;2023-04-01T00:42:19;3.57;;;0.83;;
12725;SDS011;6427;49.754;6.106;2023-04-01T00:44:54;7.87;;;1.00;;
12725;SDS011;6427;49.754;6.106;2023-04-01T00:47:20;4.50;;;0.60;;
12725;SDS011;6427;49.754;6.106;2023-04-01T00:49:48;3.50;;;0.80;;
12725;SDS011;6427;49.754;6.106;2023-04-01T00:52:17;6.73;;;0.90;;
12725;SDS011;6427;49.754;6.106;2023-04-01T00:54:44;7.90;;;1.00;;
12725;SDS011;6427;49.754;6.106;2023-04-01T00:57:21;4.70;;;1.17;;
12725;SDS011;6427;49.754;6.106;2023-04-01T00:59:53;3.53;;;0.60;;
12725;SDS011;6427;49.754;6.106;2023-04-01T01:02:22;8.07;;;1.10;;
12725;SDS011;6427;49.754;6.106;2023-04-01T01:04:48;8.07;;;0.93;;
12725;SDS011;6427;49.754;6.106;2023-04-01T01:15:21;5.97;;;1.50;;
12725;SDS011;6427;49.754;6.106;2023-04-01T01:20:54;4.93;;;1.10;;
12725;SDS011;6427;49.754;6.106;2023-04-01T01:28:57;4.83;;;1.13;;
12725;SDS011;6427;49.754;6.106;2023-04-01T01:34:32;5.90;;;1.40;;
12725;SDS011;6427;49.754;6.106;2023-04-01T01:37:10;5.03;;;0.73;;
12725;SDS011;6427;49.754;6.106;2023-04-01T01:39:34;2.73;;;0.57;;
12725;SDS011;6427;49.754;6.106;2023-04-01T01:42:03;4.30;;;0.80;;
12725;SDS011;6427;49.754;6.106;2023-04-01T01:44:29;4.20;;;0.97;;
12725;SDS011;6427;49.754;6.106;2023-04-01T01:46:56;4.73;;;0.77;;
12725;SDS011;6427;49.754;6.106;2023-04-01T01:49:24;3.53;;;0.60;;
12725;SDS011;6427;49.754;6.106;2023-04-01T01:51:51;3.03;;;0.60;;
12725;SDS011;6427;49.754;6.106;2023-04-01T01:54:20;5.87;;;1.33;;
12725;SDS011;6427;49.754;6.106;2023-04-01T01:56:48;5.10;;;0.77;;
12725;SDS011;6427;49.754;6.106;2023-04-01T01:59:15;5.03;;;0.70;;
12725;SDS011;6427;49.754;6.106;2023-04-01T02:01:43;4.95;;;1.00;;
12725;SDS011;6427;49.754;6.106;2023-04-01T02:04:10;6.47;;;0.90;;
12725;SDS011;6427;49.754;6.106;2023-04-01T02:06:38;4.13;;;0.80;;
12725;SDS011;6427;49.754;6.106;2023-04-01T02:09:06;3.60;;;0.70;;
12725;SDS011;6427;49.754;6.106;2023-04-01T02:11:34;3.33;;;0.60;;
12725;SDS011;6427;49.754;6.106;2023-04-01T02:14:20;2.42;;;0.70;;
12725;SDS011;6427;49.754;6.106;2023-04-01T02:19:12;1.50;;;0.40;;
12725;SDS011;6427;49.754;6.106;2023-04-01T02:21:40;2.77;;;0.70;;
12725;SDS011;6427;49.754;6.106;2023-04-01T02:24:09;1.97;;;0.60;;
12725;SDS011;6427;49.754;6.106;2023-04-01T02:26:35;3.50;;;0.70;;
12725;SDS011;6427;49.754;6.106;2023-04-01T02:29:02;5.17;;;0.80;;
12725;SDS011;6427;49.754;6.106;2023-04-01T02:31:30;2.07;;;0.40;;
12725;SDS011;6427;49.754;6.106;2023-04-01T02:33:58;3.05;;;0.98;;
12725;SDS011;6427;49.754;6.106;2023-04-01T02:36:25;2.65;;;0.65;;
12725;SDS011;6427;49.754;6.106;2023-04-01T02:38:53;4.20;;;0.70;;
12725;SDS011;6427;49.754;6.106;2023-04-01T02:41:20;4.67;;;0.77;;
12725;SDS011;6427;49.754;6.106;2023-04-01T02:43:48;1.03;;;0.43;;
12725;SDS011;6427;49.754;6.106;2023-04-01T02:46:15;1.37;;;0.47;;
12725;SDS011;6427;49.754;6.106;2023-04-01T02:48:43;2.40;;;0.60;;
12725;SDS011;6427;49.754;6.106;2023-04-01T02:51:10;3.50;;;0.60;;
12725;SDS011;6427;49.754;6.106;2023-04-01T02:53:38;3.40;;;0.50;;
12725;SDS011;6427;49.754;6.106;2023-04-01T02:56:06;2.37;;;0.50;;
12725;SDS011;6427;49.754;6.106;2023-04-01T02:58:33;2.67;;;0.70;;
12725;SDS011;6427;49.754;6.106;2023-04-01T03:01:01;3.33;;;0.63;;
12725;SDS011;6427;49.754;6.106;2023-04-01T03:03:28;2.17;;;0.47;;
12725;SDS011;6427;49.754;6.106;2023-04-01T03:05:56;3.60;;;0.47;;
12725;SDS011;6427;49.754;6.106;2023-04-01T03:08:24;3.20;;;0.50;;
12725;SDS011;6427;49.754;6.106;2023-04-01T03:10:51;3.87;;;0.80;;
12725;SDS011;6427;49.754;6.106;2023-04-01T03:13:19;4.43;;;0.90;;
12725;SDS011;6427;49.754;6.106;2023-04-01T03:15:46;3.40;;;0.70;;
12725;SDS011;6427;49.754;6.106;2023-04-01T03:18:14;3.13;;;0.40;;
12725;SDS011;6427;49.754;6.106;2023-04-01T03:20:42;2.63;;;0.40;;
12725;SDS011;6427;49.754;6.106;2023-04-01T03:23:09;2.83;;;0.70;;
12725;SDS011;6427;49.754;6.106;2023-04-01T03:25:37;2.43;;;0.40;;
12725;SDS011;6427;49.754;6.106;2023-04-01T03:28:04;1.77;;;0.30;;
12725;SDS011;6427;49.754;6.106;2023-04-01T03:30:32;2.03;;;0.53;;
12725;SDS011;6427;49.754;6.106;2023-04-01T03:32:59;2.47;;;0.50;;
12725;SDS011;6427;49.754;6.106;2023-04-01T03:35:27;2.23;;;0.40;;
12725;SDS011;6427;49.754;6.106;2023-04-01T03:37:54;1.80;;;0.47;;
12725;SDS011;6427;49.754;6.106;2023-04-01T03:40:22;2.70;;;0.37;;
12725;SDS011;6427;49.754;6.106;2023-04-01T03:42:49;1.20;;;0.40;;
12725;SDS011;6427;49.754;6.106;2023-04-01T03:45:17;2.27;;;0.50;;
12725;SDS011;6427;49.754;6.106;2023-04-01T03:47:44;1.67;;;0.50;;
12725;SDS011;6427;49.754;6.106;2023-04-01T03:50:12;2.33;;;0.50;;
12725;SDS011;6427;49.754;6.106;2023-04-01T03:52:40;2.20;;;0.40;;
12725;SDS011;6427;49.754;6.106;2023-04-01T03:55:07;1.77;;;0.37;;
12725;SDS011;6427;49.754;6.106;2023-04-01T03:57:35;1.37;;;0.20;;
12725;SDS011;6427;49.754;6.106;2023-04-01T04:00:02;1.30;;;0.20;;
12725;SDS011;6427;49.754;6.106;2023-04-01T04:02:30;2.40;;;0.40;;
12725;SDS011;6427;49.754;6.106;2023-04-01T04:04:57;1.77;;;0.30;;
12725;SDS011;6427;49.754;6.106;2023-04-01T04:07:25;1.03;;;0.20;;
12725;SDS011;6427;49.754;6.106;2023-04-01T04:09:52;3.80;;;0.50;;
12725;SDS011;6427;49.754;6.106;2023-04-01T04:12:20;1.90;;;0.30;;
12725;SDS011;6427;49.754;6.106;2023-04-01T04:14:48;2.27;;;0.30;;
12725;SDS011;6427;49.754;6.106;2023-04-01T04:17:15;0.80;;;0.30;;
12725;SDS011;6427;49.754;6.106;2023-04-01T04:19:43;1.37;;;0.50;;
12725;SDS011;6427;49.754;6.106;2023-04-01T04:22:10;2.70;;;0.30;;
12725;SDS011;6427;49.754;6.106;2023-04-01T04:24:38;0.50;;;0.20;;
12725;SDS011;6427;49.754;6.106;2023-04-01T04:27:05;3.33;;;0.40;;
12725;SDS011;6427;49.754;6.106;2023-04-01T04:29:33;4.27;;;0.27;;
12725;SDS011;6427;49.754;6.106;2023-04-01T04:32:00;1.47;;;0.13;;
12725;SDS011;6427;49.754;6.106;2023-04-01T04:34:28;1.50;;;0.22;;
12725;SDS011;6427;49.754;6.106;2023-04-01T04:36:55;3.47;;;0.30;;
12725;SDS011;6427;49.754;6.106;2023-04-01T04:39:23;2.33;;;0.30;;
12725;SDS011;6427;49.754;6.106;2023-04-01T04:41:51;0.37;;;0.10;;
12725;SDS011;6427;49.754;6.106;2023-04-01T04:44:18;1.77;;;0.13;;
12725;SDS011;6427;49.754;6.106;2023-04-01T04:46:46;0.10;;;0.10;;
12725;SDS011;6427;49.754;6.106;2023-04-01T04:49:13;0.50;;;0.10;;
12725;SDS011;6427;49.754;6.106;2023-04-01T04:51:41;2.57;;;0.27;;
12725;SDS011;6427;49.754;6.106;2023-04-01T04:54:08;0.40;;;0.20;;
12725;SDS011;6427;49.754;6.106;2023-04-01T04:56:36;0.30;;;0.10;;
12725;SDS011;6427;49.754;6.106;2023-04-01T04:59:03;0.37;;;0.20;;
12725;SDS011;6427;49.754;6.106;2023-04-01T05:01:31;0.67;;;0.20;;
12725;SDS011;6427;49.754;6.106;2023-04-01T05:03:59;1.27;;;0.10;;
12725;SDS011;6427;49.754;6.106;2023-04-01T05:06:26;2.80;;;0.30;;
12725;SDS011;6427;49.754;6.106;2023-04-01T05:08:54;1.90;;;0.20;;
12725;SDS011;6427;49.754;6.106;2023-04-01T05:11:21;0.30;;;0.30;;
12725;SDS011;6427;49.754;6.106;2023-04-01T05:13:49;0.50;;;0.13;;
12725;SDS011;6427;49.754;6.106;2023-04-01T05:16:17;0.30;;;0.20;;
12725;SDS011;6427;49.754;6.106;2023-04-01T05:18:44;0.20;;;0.20;;
12725;SDS011;6427;49.754;6.106;2023-04-01T05:21:12;1.20;;;0.20;;
12725;SDS011;6427;49.754;6.106;2023-04-01T05:23:39;1.63;;;0.20;;
12725;SDS011;6427;49.754;6.106;2023-04-01T05:26:08;0.77;;;0.10;;
12725;SDS011;6427;49.754;6.106;2023-04-01T05:28:37;0.70;;;0.22;;
12725;SDS011;6427;49.754;6.106;2023-04-01T05:31:05;0.77;;;0.20;;
12725;SDS011;6427;49.754;6.106;2023-04-01T05:33:32;0.47;;;0.10;;
12725;SDS011;6427;49.754;6.106;2023-04-01T05:36:09;1.70;;;0.30;;
12725;SDS011;6427;49.754;6.106;2023-04-01T05:38:36;1.13;;;0.20;;
12725;SDS011;6427;49.754;6.106;2023-04-01T05:41:03;1.80;;;0.20;;
12725;SDS011;6427;49.754;6.106;2023-04-01T05:43:31;1.07;;;0.20;;
12725;SDS011;6427;49.754;6.106;2023-04-01T05:45:58;1.00;;;0.13;;
12725;SDS011;6427;49.754;6.106;2023-04-01T05:48:26;1.12;;;0.10;;
12725;SDS011;6427;49.754;6.106;2023-04-01T05:50:53;1.13;;;0.27;;
12725;SDS011;6427;49.754;6.106;2023-04-01T05:53:21;0.03;;;0.00;;
12725;SDS011;6427;49.754;6.106;2023-04-01T05:55:49;0.30;;;0.17;;
12725;SDS011;6427;49.754;6.106;2023-04-01T05:58:16;1.23;;;0.10;;
12725;SDS011;6427;49.754;6.106;2023-04-01T06:00:44;1.10;;;0.10;;
12725;SDS011;6427;49.754;6.106;2023-04-01T06:03:11;0.00;;;0.00;;
12725;SDS011;6427;49.754;6.106;2023-04-01T06:05:40;0.90;;;0.30;;
12725;SDS011;6427;49.754;6.106;2023-04-01T06:08:10;0.80;;;0.20;;
12725;SDS011;6427;49.754;6.106;2023-04-01T06:10:43;0.10;;;0.10;;
12725;SDS011;6427;49.754;6.106;2023-04-01T06:13:10;1.07;;;0.10;;
12725;SDS011;6427;49.754;6.106;2023-04-01T06:15:39;0.30;;;0.20;;
12725;SDS011;6427;49.754;6.106;2023-04-01T06:21:13;0.23;;;0.00;;
12725;SDS011;6427;49.754;6.106;2023-04-01T06:26:50;0.10;;;0.00;;
12725;SDS011;6427;49.754;6.106;2023-04-01T06:34:34;1.05;;;0.20;;
12725;SDS011;6427;49.754;6.106;2023-04-01T06:37:06;0.20;;;0.10;;
12725;SDS011;6427;49.754;6.106;2023-04-01T06:39:46;0.40;;;0.10;;
12725;SDS011;6427;49.754;6.106;2023-04-01T06:42:12;0.27;;;0.00;;
12725;SDS011;6427;49.754;6.106;2023-04-01T06:44:46;0.30;;;0.00;;
12725;SDS011;6427;49.754;6.106;2023-04-01T06:47:22;0.60;;;0.10;;
12725;SDS011;6427;49.754;6.106;2023-04-01T06:52:29;0.07;;;0.07;;
12725;SDS011;6427;49.754;6.106;2023-04-01T06:55:26;0.30;;;0.10;;
12725;SDS011;6427;49.754;6.106;2023-04-01T06:57:40;0.10;;;0.10;;
12725;SDS011;6427;49.754;6.106;2023-04-01T07:00:41;0.40;;;0.10;;
12725;SDS011;6427;49.754;6.106;2023-04-01T07:02:52;0.30;;;0.03;;
12725;SDS011;6427;49.754;6.106;2023-04-01T07:05:17;0.93;;;0.10;;
12725;SDS011;6427;49.754;6.106;2023-04-01T07:07:46;0.25;;;0.20;;
12725;SDS011;6427;49.754;6.106;2023-04-01T07:10:13;0.50;;;0.10;;
12725;SDS011;6427;49.754;6.106;2023-04-01T07:12:43;0.10;;;0.07;;
12725;SDS011;6427;49.754;6.106;2023-04-01T07:17:55;0.07;;;0.07;;
12725;SDS011;6427;49.754;6.106;2023-04-01T07:20:31;0.10;;;0.00;;
12725;SDS011;6427;49.754;6.106;2023-04-01T07:22:59;1.07;;;0.10;;
12725;SDS011;6427;49.754;6.106;2023-04-01T07:25:48;1.30;;;0.10;;
12725;SDS011;6427;49.754;6.106;2023-04-01T07:28:12;0.37;;;0.10;;
12725;SDS011;6427;49.754;6.106;2023-04-01T07:33:15;0.60;;;0.40;;
12725;SDS011;6427;49.754;6.106;2023-04-01T07:35:51;3.00;;;1.40;;
12725;SDS011;6427;49.754;6.106;2023-04-01T07:38:26;1.77;;;1.10;;
12725;SDS011;6427;49.754;6.106;2023-04-01T07:41:04;1.37;;;1.00;;
12725;SDS011;6427;49.754;6.106;2023-04-01T07:46:45;1.37;;;0.33;;
12725;SDS011;6427;49.754;6.106;2023-04-01T07:51:50;56.95;;;4.07;;
12725;SDS011;6427;49.754;6.106;2023-04-01T07:57:40;0.90;;;0.30;;
12725;SDS011;6427;49.754;6.106;2023-04-01T08:00:05;1.07;;;0.20;;
12725;SDS011;6427;49.754;6.106;2023-04-01T08:02:33;0.40;;;0.37;;
12725;SDS011;6427;49.754;6.106;2023-04-01T08:05:03;0.20;;;0.20;;
12725;SDS011;6427;49.754;6.106;2023-04-01T08:07:33;0.33;;;0.13;;
12725;SDS011;6427;49.754;6.106;2023-04-01T08:12:31;1.13;;;0.10;;
12725;SDS011;6427;49.754;6.106;2023-04-01T08:23:36;0.30;;;0.10;;
12725;SDS011;6427;49.754;6.106;2023-04-01T08:26:02;0.17;;;0.17;;
12725;SDS011;6427;49.754;6.106;2023-04-01T08:28:29;0.43;;;0.20;;
12725;SDS011;6427;49.754;6.106;2023-04-01T08:30:56;0.43;;;0.30;;
12725;SDS011;6427;49.754;6.106;2023-04-01T08:33:26;0.57;;;0.10;;
12725;SDS011;6427;49.754;6.106;2023-04-01T08:35:57;0.87;;;0.20;;
12725;SDS011;6427;49.754;6.106;2023-04-01T08:44:32;0.40;;;0.10;;
12725;SDS011;6427;49.754;6.106;2023-04-01T08:52:15;0.60;;;0.23;;
12725;SDS011;6427;49.754;6.106;2023-04-01T09:08:41;0.80;;;0.20;;
12725;SDS011;6427;49.754;6.106;2023-04-01T09:11:08;0.87;;;0.37;;
12725;SDS011;6427;49.754;6.106;2023-04-01T09:13:51;1.30;;;0.20;;
12725;SDS011;6427;49.754;6.106;2023-04-01T09:19:33;1.47;;;0.33;;
12725;SDS011;6427;49.754;6.106;2023-04-01T09:27:30;0.50;;;0.10;;
12725;SDS011;6427;49.754;6.106;2023-04-01T09:30:05;0.20;;;0.10;;
12725;SDS011;6427;49.754;6.106;2023-04-01T09:38:21;0.03;;;0.03;;
12725;SDS011;6427;49.754;6.106;2023-04-01T09:46:30;0.40;;;0.10;;
12725;SDS011;6427;49.754;6.106;2023-04-01T09:59:15;0.20;;;0.20;;
12725;SDS011;6427;49.754;6.106;2023-04-01T10:01:44;0.63;;;0.20;;
12725;SDS011;6427;49.754;6.106;2023-04-01T10:20:52;0.27;;;0.17;;
12725;SDS011;6427;49.754;6.106;2023-04-01T10:23:27;0.20;;;0.20;;
12725;SDS011;6427;49.754;6.106;2023-04-01T10:45:25;1.53;;;0.70;;
12725;SDS011;6427;49.754;6.106;2023-04-01T11:04:57;0.40;;;0.10;;
12725;SDS011;6427;49.754;6.106;2023-04-01T11:15:41;0.10;;;0.10;;
12725;SDS011;6427;49.754;6.106;2023-04-01T11:37:42;1.07;;;0.47;;
12725;SDS011;6427;49.754;6.106;2023-04-01T11:42:49;0.57;;;0.30;;
12725;SDS011;6427;49.754;6.106;2023-04-01T12:01:36;0.20;;;0.10;;
12725;SDS011;6427;49.754;6.106;2023-04-01T12:07:19;0.30;;;0.20;;
12725;SDS011;6427;49.754;6.106;2023-04-01T12:09:54;0.20;;;0.10;;
12725;SDS011;6427;49.754;6.106;2023-04-01T12:23:36;0.50;;;0.20;;
12725;SDS011;6427;49.754;6.106;2023-04-01T12:47:57;0.20;;;0.20;;
12725;SDS011;6427;49.754;6.106;2023-04-01T12:50:24;0.10;;;0.10;;
12725;SDS011;6427;49.754;6.106;2023-04-01T12:53:08;0.47;;;0.10;;
12725;SDS011;6427;49.754;6.106;2023-04-01T12:55:40;0.40;;;0.20;;
12725;SDS011;6427;49.754;6.106;2023-04-01T13:01:19;0.10;;;0.10;;
12725;SDS011;6427;49.754;6.106;2023-04-01T13:06:58;0.20;;;0.20;;
12725;SDS011;6427;49.754;6.106;2023-04-01T13:09:28;1.23;;;0.17;;
12725;SDS011;6427;49.754;6.106;2023-04-01T13:12:03;0.10;;;0.10;;
12725;SDS011;6427;49.754;6.106;2023-04-01T13:17:53;0.60;;;0.20;;
12725;SDS011;6427;49.754;6.106;2023-04-01T13:25:59;0.67;;;0.20;;
12725;SDS011;6427;49.754;6.106;2023-04-01T13:28:32;0.33;;;0.10;;
12725;SDS011;6427;49.754;6.106;2023-04-01T13:39:11;0.90;;;0.27;;
12725;SDS011;6427;49.754;6.106;2023-04-01T13:44:35;1.07;;;0.10;;
12725;SDS011;6427;49.754;6.106;2023-04-01T13:47:12;0.60;;;0.30;;
12725;SDS011;6427;49.754;6.106;2023-04-01T13:53:04;4.57;;;4.00;;
12725;SDS011;6427;49.754;6.106;2023-04-01T13:55:36;3.37;;;1.93;;
12725;SDS011;6427;49.754;6.106;2023-04-01T13:58:13;2.13;;;0.80;;
12725;SDS011;6427;49.754;6.106;2023-04-01T14:00:56;1.23;;;1.07;;
12725;SDS011;6427;49.754;6.106;2023-04-01T14:17:20;0.57;;;0.30;;
12725;SDS011;6427;49.754;6.106;2023-04-01T14:28:48;0.67;;;0.20;;
12725;SDS011;6427;49.754;6.106;2023-04-01T14:34:27;0.30;;;0.25;;
12725;SDS011;6427;49.754;6.106;2023-04-01T14:50:27;1.57;;;0.27;;
12725;SDS011;6427;49.754;6.106;2023-04-01T14:55:57;0.90;;;0.40;;
12725;SDS011;6427;49.754;6.106;2023-04-01T14:58:25;1.02;;;0.75;;
12725;SDS011;6427;49.754;6.106;2023-04-01T15:08:44;0.60;;;0.43;;
12725;SDS011;6427;49.754;6.106;2023-04-01T15:14:21;0.80;;;0.30;;
12725;SDS011;6427;49.754;6.106;2023-04-01T15:17:03;1.40;;;0.30;;
12725;SDS011;6427;49.754;6.106;2023-04-01T15:20:08;1.50;;;0.40;;
12725;SDS011;6427;49.754;6.106;2023-04-01T15:24:39;0.90;;;0.50;;
12725;SDS011;6427;49.754;6.106;2023-04-01T15:29:51;1.60;;;0.80;;
12725;SDS011;6427;49.754;6.106;2023-04-01T15:32:32;1.17;;;0.30;;
12725;SDS011;6427;49.754;6.106;2023-04-01T15:35:14;0.57;;;0.30;;
12725;SDS011;6427;49.754;6.106;2023-04-01T15:40:18;0.30;;;0.20;;
12725;SDS011;6427;49.754;6.106;2023-04-01T15:46:09;0.60;;;0.40;;
12725;SDS011;6427;49.754;6.106;2023-04-01T15:54:20;1.17;;;0.67;;
12725;SDS011;6427;49.754;6.106;2023-04-01T15:59:47;2.73;;;1.23;;
12725;SDS011;6427;49.754;6.106;2023-04-01T16:02:31;3.67;;;2.07;;
12725;SDS011;6427;49.754;6.106;2023-04-01T16:04:58;0.37;;;0.30;;
12725;SDS011;6427;49.754;6.106;2023-04-01T16:07:43;3.97;;;0.50;;
12725;SDS011;6427;49.754;6.106;2023-04-01T16:10:21;0.23;;;0.23;;
12725;SDS011;6427;49.754;6.106;2023-04-01T16:13:04;1.10;;;0.37;;
12725;SDS011;6427;49.754;6.106;2023-04-01T16:15:41;1.00;;;0.60;;
12725;SDS011;6427;49.754;6.106;2023-04-01T16:18:09;0.90;;;0.40;;
12725;SDS011;6427;49.754;6.106;2023-04-01T16:20:40;0.97;;;0.60;;
12725;SDS011;6427;49.754;6.106;2023-04-01T16:23:03;1.60;;;0.80;;
12725;SDS011;6427;49.754;6.106;2023-04-01T16:25:38;1.17;;;0.80;;
12725;SDS011;6427;49.754;6.106;2023-04-01T16:28:13;1.70;;;0.60;;
12725;SDS011;6427;49.754;6.106;2023-04-01T16:30:58;0.77;;;0.30;;
12725;SDS011;6427;49.754;6.106;2023-04-01T16:39:02;0.90;;;0.50;;
12725;SDS011;6427;49.754;6.106;2023-04-01T16:41:29;0.43;;;0.40;;
12725;SDS011;6427;49.754;6.106;2023-04-01T16:43:56;1.07;;;0.40;;
12725;SDS011;6427;49.754;6.106;2023-04-01T16:51:52;0.70;;;0.37;;
12725;SDS011;6427;49.754;6.106;2023-04-01T16:56:56;0.53;;;0.40;;
12725;SDS011;6427;49.754;6.106;2023-04-01T16:59:20;0.70;;;0.30;;
12725;SDS011;6427;49.754;6.106;2023-04-01T17:04:43;2.50;;;1.55;;
12725;SDS011;6427;49.754;6.106;2023-04-01T17:12:35;0.40;;;0.30;;
12725;SDS011;6427;49.754;6.106;2023-04-01T17:15:17;1.47;;;0.30;;
12725;SDS011;6427;49.754;6.106;2023-04-01T17:20:31;2.65;;;2.10;;
12725;SDS011;6427;49.754;6.106;2023-04-01T17:22:54;0.93;;;0.67;;
12725;SDS011;6427;49.754;6.106;2023-04-01T17:30:24;1.40;;;1.17;;
12725;SDS011;6427;49.754;6.106;2023-04-01T17:33:02;3.40;;;2.10;;
12725;SDS011;6427;49.754;6.106;2023-04-01T17:35:35;0.90;;;0.88;;
12725;SDS011;6427;49.754;6.106;2023-04-01T17:38:06;2.20;;;1.90;;
12725;SDS011;6427;49.754;6.106;2023-04-01T17:43:22;1.37;;;1.17;;
12725;SDS011;6427;49.754;6.106;2023-04-01T17:45:49;2.80;;;1.80;;
12725;SDS011;6427;49.754;6.106;2023-04-01T17:48:35;1.77;;;1.20;;
12725;SDS011;6427;49.754;6.106;2023-04-01T17:51:07;1.98;;;1.50;;
12725;SDS011;6427;49.754;6.106;2023-04-01T17:56:41;1.30;;;0.90;;
12725;SDS011;6427;49.754;6.106;2023-04-01T17:59:36;1.23;;;0.90;;
12725;SDS011;6427;49.754;6.106;2023-04-01T18:04:37;3.08;;;2.25;;
12725;SDS011;6427;49.754;6.106;2023-04-01T18:07:16;2.43;;;1.43;;
12725;SDS011;6427;49.754;6.106;2023-04-01T18:12:17;1.90;;;1.30;;
12725;SDS011;6427;49.754;6.106;2023-04-01T18:15:08;2.07;;;1.30;;
12725;SDS011;6427;49.754;6.106;2023-04-01T18:17:43;1.20;;;1.00;;
12725;SDS011;6427;49.754;6.106;2023-04-01T18:20:28;2.87;;;1.10;;
12725;SDS011;6427;49.754;6.106;2023-04-01T18:25:50;1.47;;;1.20;;
12725;SDS011;6427;49.754;6.106;2023-04-01T18:34:19;2.10;;;1.60;;
12725;SDS011;6427;49.754;6.106;2023-04-01T18:36:19;1.73;;;1.40;;
12725;SDS011;6427;49.754;6.106;2023-04-01T18:38:49;1.90;;;1.53;;
12725;SDS011;6427;49.754;6.106;2023-04-01T18:41:19;2.53;;;1.85;;
12725;SDS011;6427;49.754;6.106;2023-04-01T18:43:59;3.07;;;1.77;;
12725;SDS011;6427;49.754;6.106;2023-04-01T18:47:03;1.40;;;1.30;;
12725;SDS011;6427;49.754;6.106;2023-04-01T18:57:40;3.17;;;1.63;;
12725;SDS011;6427;49.754;6.106;2023-04-01T19:00:22;2.67;;;2.00;;
12725;SDS011;6427;49.754;6.106;2023-04-01T19:02:56;2.37;;;1.33;;
12725;SDS011;6427;49.754;6.106;2023-04-01T19:05:31;3.30;;;1.30;;
12725;SDS011;6427;49.754;6.106;2023-04-01T19:10:56;2.30;;;1.20;;
12725;SDS011;6427;49.754;6.106;2023-04-01T19:16:19;4.33;;;2.83;;
12725;SDS011;6427;49.754;6.106;2023-04-01T19:19:00;2.37;;;1.67;;
12725;SDS011;6427;49.754;6.106;2023-04-01T19:22:24;2.73;;;1.93;;
12725;SDS011;6427;49.754;6.106;2023-04-01T19:24:16;3.20;;;2.20;;
12725;SDS011;6427;49.754;6.106;2023-04-01T19:29:28;3.50;;;2.00;;
12725;SDS011;6427;49.754;6.106;2023-04-01T19:32:05;2.80;;;2.47;;
12725;SDS011;6427;49.754;6.106;2023-04-01T19:37:09;2.70;;;2.10;;
12725;SDS011;6427;49.754;6.106;2023-04-01T19:42:52;5.15;;;3.47;;
12725;SDS011;6427;49.754;6.106;2023-04-01T19:50:57;6.67;;;4.63;;
12725;SDS011;6427;49.754;6.106;2023-04-01T19:53:27;6.80;;;4.47;;
12725;SDS011;6427;49.754;6.106;2023-04-01T20:01:27;4.63;;;2.73;;
12725;SDS011;6427;49.754;6.106;2023-04-01T20:04:08;5.25;;;3.60;;
12725;SDS011;6427;49.754;6.106;2023-04-01T20:06:37;4.47;;;2.70;;
12725;SDS011;6427;49.754;6.106;2023-04-01T20:09:08;3.70;;;3.15;;
12725;SDS011;6427;49.754;6.106;2023-04-01T20:12:05;2.80;;;2.03;;
12725;SDS011;6427;49.754;6.106;2023-04-01T20:14:46;3.33;;;2.20;;
12725;SDS011;6427;49.754;6.106;2023-04-01T20:17:22;2.37;;;2.17;;
12725;SDS011;6427;49.754;6.106;2023-04-01T20:41:23;2.53;;;1.30;;
12725;SDS011;6427;49.754;6.106;2023-04-01T20:44:09;1.20;;;1.10;;
12725;SDS011;6427;49.754;6.106;2023-04-01T20:46:59;1.30;;;1.20;;
12725;SDS011;6427;49.754;6.106;2023-04-01T20:49:39;1.73;;;1.30;;
12725;SDS011;6427;49.754;6.106;2023-04-01T20:54:55;1.10;;;1.00;;
12725;SDS011;6427;49.754;6.106;2023-04-01T20:57:27;1.20;;;1.10;;
12725;SDS011;6427;49.754;6.106;2023-04-01T20:59:58;3.40;;;1.70;;
12725;SDS011;6427;49.754;6.106;2023-04-01T21:08:17;1.50;;;1.40;;
12725;SDS011;6427;49.754;6.106;2023-04-01T21:16:19;7.03;;;2.00;;
12725;SDS011;6427;49.754;6.106;2023-04-01T21:21:22;1.80;;;1.60;;
12725;SDS011;6427;49.754;6.106;2023-04-01T21:23:57;3.00;;;1.43;;
12725;SDS011;6427;49.754;6.106;2023-04-01T21:26:33;1.60;;;1.40;;
12725;SDS011;6427;49.754;6.106;2023-04-01T21:29:08;2.63;;;1.70;;
12725;SDS011;6427;49.754;6.106;2023-04-01T21:39:58;1.93;;;1.40;;
12725;SDS011;6427;49.754;6.106;2023-04-01T21:59:44;3.17;;;1.97;;
12725;SDS011;6427;49.754;6.106;2023-04-01T22:05:18;4.40;;;2.60;;
12725;SDS011;6427;49.754;6.106;2023-04-01T22:07:59;3.63;;;2.37;;
12725;SDS011;6427;49.754;6.106;2023-04-01T22:10:44;4.10;;;2.90;;
12725;SDS011;6427;49.754;6.106;2023-04-01T22:15:48;3.50;;;2.77;;
12725;SDS011;6427;49.754;6.106;2023-04-01T22:18:20;3.53;;;3.00;;
12725;SDS011;6427;49.754;6.106;2023-04-01T22:20:54;4.03;;;2.73;;
12725;SDS011;6427;49.754;6.106;2023-04-01T22:23:43;3.60;;;2.53;;
12725;SDS011;6427;49.754;6.106;2023-04-01T22:26:15;3.13;;;2.57;;
12725;SDS011;6427;49.754;6.106;2023-04-01T22:28:46;3.13;;;2.57;;
12725;SDS011;6427;49.754;6.106;2023-04-01T22:31:14;3.83;;;2.73;;
12725;SDS011;6427;49.754;6.106;2023-04-01T22:33:45;4.37;;;2.77;;
12725;SDS011;6427;49.754;6.106;2023-04-01T22:36:26;5.95;;;4.53;;
12725;SDS011;6427;49.754;6.106;2023-04-01T22:38:57;5.47;;;3.73;;
12725;SDS011;6427;49.754;6.106;2023-04-01T22:44:04;4.57;;;3.17;;
12725;SDS011;6427;49.754;6.106;2023-04-01T22:46:43;4.13;;;2.83;;
12725;SDS011;6427;49.754;6.106;2023-04-01T22:52:03;3.80;;;3.40;;
12725;SDS011;6427;49.754;6.106;2023-04-01T22:54:42;2.90;;;2.60;;
12725;SDS011;6427;49.754;6.106;2023-04-01T22:57:12;4.62;;;3.35;;
12725;SDS011;6427;49.754;6.106;2023-04-01T22:59:52;4.67;;;3.20;;
12725;SDS011;6427;49.754;6.106;2023-04-01T23:02:30;4.13;;;2.87;;
12725;SDS011;6427;49.754;6.106;2023-04-01T23:04:58;3.10;;;2.57;;
12725;SDS011;6427;49.754;6.106;2023-04-01T23:07:37;3.37;;;2.70;;
12725;SDS011;6427;49.754;6.106;2023-04-01T23:10:05;3.57;;;2.33;;
12725;SDS011;6427;49.754;6.106;2023-04-01T23:12:31;3.50;;;2.53;;
12725;SDS011;6427;49.754;6.106;2023-04-01T23:15:00;2.70;;;2.13;;
12725;SDS011;6427;49.754;6.106;2023-04-01T23:20:02;2.20;;;1.90;;
12725;SDS011;6427;49.754;6.106;2023-04-01T23:22:54;1.60;;;1.40;;
12725;SDS011;6427;49.754;6.106;2023-04-01T23:25:27;3.50;;;2.40;;
12725;SDS011;6427;49.754;6.106;2023-04-01T23:33:19;2.53;;;1.10;;
12725;SDS011;6427;49.754;6.106;2023-04-01T23:35:48;1.70;;;1.53;;
12725;SDS011;6427;49.754;6.106;2023-04-01T23:38:21;1.77;;;1.30;;
12725;SDS011;6427;49.754;6.106;2023-04-01T23:40:49;1.10;;;0.93;;
12725;SDS011;6427;49.754;6.106;2023-04-01T23:43:31;1.40;;;1.17;;
12725;SDS011;6427;49.754;6.106;2023-04-01T23:46:00;2.60;;;2.00;;
12725;SDS011;6427;49.754;6.106;2023-04-01T23:48:32;1.83;;;1.40;;
12725;SDS011;6427;49.754;6.106;2023-04-01T23:50:59;1.67;;;1.50;;
12725;SDS011;6427;49.754;6.106;2023-04-01T23:53:30;2.07;;;1.57;;
12725;SDS011;6427;49.754;6.106;2023-04-01T23:55:56;2.40;;;1.60;;
12725;SDS011;6427;49.754;6.106;2023-04-01T23:58:25;1.97;;;1.60;;
